sensor_id;sensor_type;location;lat;lon;timestamp;temperature;humidity
41168;DHT22;26906;45.658;9.272;2023-05-19T05:34:36;17.10;99.90
41168;DHT22;26906;45.658;9.272;2023-05-19T05:37:05;17.10;99.90
41168;DHT22;26906;45.658;9.272;2023-05-19T05:39:33;17.20;99.90
41168;DHT22;26906;45.658;9.272;2023-05-19T05:41:59;17.20;99.90
41168;DHT22;26906;45.658;9.272;2023-05-19T05:44:26;17.30;99.90
41168;DHT22;26906;45.658;9.272;2023-05-19T05:46:52;17.20;99.90
41168;DHT22;26906;45.658;9.272;2023-05-19T05:49:19;17.20;99.90
41168;DHT22;26906;45.658;9.272;2023-05-19T05:51:46;17.30;99.90
41168;DHT22;26906;45.658;9.272;2023-05-19T05:54:12;17.40;99.90
41168;DHT22;26906;45.658;9.272;2023-05-19T05:56:44;17.50;99.90
41168;DHT22;26906;45.658;9.272;2023-05-19T05:59:11;17.60;99.90
41168;DHT22;26906;45.658;9.272;2023-05-19T06:01:37;17.70;99.90
41168;DHT22;26906;45.658;9.272;2023-05-19T06:04:06;17.80;99.90
41168;DHT22;26906;45.658;9.272;2023-05-19T06:06:32;17.80;99.90
41168;DHT22;26906;45.658;9.272;2023-05-19T06:09:00;18.00;99.90
41168;DHT22;26906;45.658;9.272;2023-05-19T06:11:26;18.10;99.90
41168;DHT22;26906;45.658;9.272;2023-05-19T06:13:55;18.00;99.90
41168;DHT22;26906;45.658;9.272;2023-05-19T06:16:39;18.00;99.90
41168;DHT22;26906;45.658;9.272;2023-05-19T06:19:05;17.90;99.90
41168;DHT22;26906;45.658;9.272;2023-05-19T06:21:31;17.90;99.90
41168;DHT22;26906;45.658;9.272;2023-05-19T06:23:57;18.00;99.90
41168;DHT22;26906;45.658;9.272;2023-05-19T06:26:23;18.00;99.90
41168;DHT22;26906;45.658;9.272;2023-05-19T06:28:49;18.00;99.90
41168;DHT22;26906;45.658;9.272;2023-05-19T06:31:14;17.90;99.90
41168;DHT22;26906;45.658;9.272;2023-05-19T06:33:55;17.90;99.90
41168;DHT22;26906;45.658;9.272;2023-05-19T06:36:20;17.90;99.90
41168;DHT22;26906;45.658;9.272;2023-05-19T06:38:47;17.90;99.90
41168;DHT22;26906;45.658;9.272;2023-05-19T06:41:13;17.90;99.90
41168;DHT22;26906;45.658;9.272;2023-05-19T06:43:41;17.90;99.90
41168;DHT22;26906;45.658;9.272;2023-05-19T06:46:11;17.90;99.90
41168;DHT22;26906;45.658;9.272;2023-05-19T06:48:37;17.90;99.90
41168;DHT22;26906;45.658;9.272;2023-05-19T06:51:03;17.90;99.90
41168;DHT22;26906;45.658;9.272;2023-05-19T06:53:32;17.90;99.90
41168;DHT22;26906;45.658;9.272;2023-05-19T06:55:58;18.00;99.90
41168;DHT22;26906;45.658;9.272;2023-05-19T06:58:26;18.00;99.90
41168;DHT22;26906;45.658;9.272;2023-05-19T07:00:52;18.10;99.90
41168;DHT22;26906;45.658;9.272;2023-05-19T07:03:17;18.00;99.90
41168;DHT22;26906;45.658;9.272;2023-05-19T07:05:43;18.00;99.90
41168;DHT22;26906;45.658;9.272;2023-05-19T07:08:09;18.20;99.90
41168;DHT22;26906;45.658;9.272;2023-05-19T07:10:35;18.20;99.90
41168;DHT22;26906;45.658;9.272;2023-05-19T07:13:05;18.20;99.90
41168;DHT22;26906;45.658;9.272;2023-05-19T07:15:32;18.20;99.90
41168;DHT22;26906;45.658;9.272;2023-05-19T07:17:58;18.40;99.90
41168;DHT22;26906;45.658;9.272;2023-05-19T07:20:24;18.40;99.90
41168;DHT22;26906;45.658;9.272;2023-05-19T07:22:50;18.40;99.90
41168;DHT22;26906;45.658;9.272;2023-05-19T07:25:16;18.50;99.90
41168;DHT22;26906;45.658;9.272;2023-05-19T07:27:44;18.60;99.90
41168;DHT22;26906;45.658;9.272;2023-05-19T07:30:11;18.60;99.90
41168;DHT22;26906;45.658;9.272;2023-05-19T07:32:36;18.70;99.90
41168;DHT22;26906;45.658;9.272;2023-05-19T07:35:04;18.70;99.90
41168;DHT22;26906;45.658;9.272;2023-05-19T07:37:29;18.70;99.90
41168;DHT22;26906;45.658;9.272;2023-05-19T07:39:55;18.90;99.90
41168;DHT22;26906;45.658;9.272;2023-05-19T07:42:21;18.80;99.90
41168;DHT22;26906;45.658;9.272;2023-05-19T07:44:47;18.80;99.90
41168;DHT22;26906;45.658;9.272;2023-05-19T07:47:14;18.80;99.90
41168;DHT22;26906;45.658;9.272;2023-05-19T07:49:40;18.90;99.90
41168;DHT22;26906;45.658;9.272;2023-05-19T07:52:06;18.80;99.90
41168;DHT22;26906;45.658;9.272;2023-05-19T07:54:31;18.80;99.90
41168;DHT22;26906;45.658;9.272;2023-05-19T07:56:57;18.80;99.90
41168;DHT22;26906;45.658;9.272;2023-05-19T07:59:23;18.80;99.90
41168;DHT22;26906;45.658;9.272;2023-05-19T08:01:48;18.90;99.90
41168;DHT22;26906;45.658;9.272;2023-05-19T08:04:14;18.90;99.90
41168;DHT22;26906;45.658;9.272;2023-05-19T08:06:41;18.90;99.90
41168;DHT22;26906;45.658;9.272;2023-05-19T08:09:09;18.90;99.90
41168;DHT22;26906;45.658;9.272;2023-05-19T08:11:34;19.00;99.90
41168;DHT22;26906;45.658;9.272;2023-05-19T08:14:01;19.00;99.90
41168;DHT22;26906;45.658;9.272;2023-05-19T08:16:26;19.10;99.90
41168;DHT22;26906;45.658;9.272;2023-05-19T08:18:52;19.10;99.90
41168;DHT22;26906;45.658;9.272;2023-05-19T08:21:20;19.20;99.90
41168;DHT22;26906;45.658;9.272;2023-05-19T08:23:46;19.20;99.90
41168;DHT22;26906;45.658;9.272;2023-05-19T08:26:12;19.10;99.90
41168;DHT22;26906;45.658;9.272;2023-05-19T08:28:38;19.20;99.90
41168;DHT22;26906;45.658;9.272;2023-05-19T08:31:03;19.30;99.90
41168;DHT22;26906;45.658;9.272;2023-05-19T08:33:29;19.30;99.90
41168;DHT22;26906;45.658;9.272;2023-05-19T08:35:55;19.20;99.90
41168;DHT22;26906;45.658;9.272;2023-05-19T08:38:23;19.10;99.90
41168;DHT22;26906;45.658;9.272;2023-05-19T08:40:49;19.20;99.90
41168;DHT22;26906;45.658;9.272;2023-05-19T08:43:15;19.20;99.90
41168;DHT22;26906;45.658;9.272;2023-05-19T08:45:43;19.20;99.90
41168;DHT22;26906;45.658;9.272;2023-05-19T08:48:13;19.20;99.90
41168;DHT22;26906;45.658;9.272;2023-05-19T08:50:45;19.20;99.90
41168;DHT22;26906;45.658;9.272;2023-05-19T08:53:19;19.30;99.90
41168;DHT22;26906;45.658;9.272;2023-05-19T08:56:21;19.30;99.90
41168;DHT22;26906;45.658;9.272;2023-05-19T08:58:48;19.30;99.90
41168;DHT22;26906;45.658;9.272;2023-05-19T09:01:15;19.30;99.90
41168;DHT22;26906;45.658;9.272;2023-05-19T09:03:44;19.50;99.90
41168;DHT22;26906;45.658;9.272;2023-05-19T09:06:10;19.60;99.90
41168;DHT22;26906;45.658;9.272;2023-05-19T09:08:40;19.70;99.90
41168;DHT22;26906;45.658;9.272;2023-05-19T09:11:07;19.90;99.90
41168;DHT22;26906;45.658;9.272;2023-05-19T09:13:33;20.00;99.90
41168;DHT22;26906;45.658;9.272;2023-05-19T09:15:59;20.20;99.90
41168;DHT22;26906;45.658;9.272;2023-05-19T09:18:25;20.30;99.90
41168;DHT22;26906;45.658;9.272;2023-05-19T09:20:57;20.20;99.90
41168;DHT22;26906;45.658;9.272;2023-05-19T09:23:31;20.20;99.90
41168;DHT22;26906;45.658;9.272;2023-05-19T09:26:02;20.20;99.90
41168;DHT22;26906;45.658;9.272;2023-05-19T09:28:33;20.30;99.90
41168;DHT22;26906;45.658;9.272;2023-05-19T09:31:09;20.20;99.90
41168;DHT22;26906;45.658;9.272;2023-05-19T09:33:37;20.20;99.90
41168;DHT22;26906;45.658;9.272;2023-05-19T09:36:04;20.00;99.90
41168;DHT22;26906;45.658;9.272;2023-05-19T09:38:31;19.90;99.90
41168;DHT22;26906;45.658;9.272;2023-05-19T09:40:58;19.90;99.90
41168;DHT22;26906;45.658;9.272;2023-05-19T09:43:29;20.00;99.90
41168;DHT22;26906;45.658;9.272;2023-05-19T09:45:59;20.10;99.90
41168;DHT22;26906;45.658;9.272;2023-05-19T09:48:28;20.30;99.90
41168;DHT22;26906;45.658;9.272;2023-05-19T09:50:55;20.30;99.90
41168;DHT22;26906;45.658;9.272;2023-05-19T09:53:21;20.40;99.90
41168;DHT22;26906;45.658;9.272;2023-05-19T09:55:48;20.40;99.90
41168;DHT22;26906;45.658;9.272;2023-05-19T09:58:17;20.30;99.90
41168;DHT22;26906;45.658;9.272;2023-05-19T10:00:44;20.30;99.90
41168;DHT22;26906;45.658;9.272;2023-05-19T10:03:10;20.30;99.90
41168;DHT22;26906;45.658;9.272;2023-05-19T10:05:36;20.10;99.90
41168;DHT22;26906;45.658;9.272;2023-05-19T10:08:03;20.10;99.90
41168;DHT22;26906;45.658;9.272;2023-05-19T10:10:32;20.10;99.90
41168;DHT22;26906;45.658;9.272;2023-05-19T10:12:58;20.00;99.90
41168;DHT22;26906;45.658;9.272;2023-05-19T10:15:25;19.80;99.90
41168;DHT22;26906;45.658;9.272;2023-05-19T10:17:51;19.90;99.90
41168;DHT22;26906;45.658;9.272;2023-05-19T10:20:17;20.00;99.90
41168;DHT22;26906;45.658;9.272;2023-05-19T10:22:44;20.10;99.90
41168;DHT22;26906;45.658;9.272;2023-05-19T10:25:11;20.20;99.90
41168;DHT22;26906;45.658;9.272;2023-05-19T10:28:10;20.30;99.90
41168;DHT22;26906;45.658;9.272;2023-05-19T10:30:40;20.40;99.90
41168;DHT22;26906;45.658;9.272;2023-05-19T10:33:10;20.40;99.90
41168;DHT22;26906;45.658;9.272;2023-05-19T10:36:01;20.50;99.90
41168;DHT22;26906;45.658;9.272;2023-05-19T10:41:52;20.30;99.90
41168;DHT22;26906;45.658;9.272;2023-05-19T10:47:26;19.80;99.90
41168;DHT22;26906;45.658;9.272;2023-05-19T10:49:55;19.80;99.90
41168;DHT22;26906;45.658;9.272;2023-05-19T10:52:22;19.90;99.90
41168;DHT22;26906;45.658;9.272;2023-05-19T10:54:50;20.00;99.90
41168;DHT22;26906;45.658;9.272;2023-05-19T10:57:24;19.90;99.90
41168;DHT22;26906;45.658;9.272;2023-05-19T10:59:51;19.80;99.90
41168;DHT22;26906;45.658;9.272;2023-05-19T11:07:34;19.80;99.90
41168;DHT22;26906;45.658;9.272;2023-05-19T11:10:04;19.90;99.90
41168;DHT22;26906;45.658;9.272;2023-05-19T11:12:42;20.00;99.90
41168;DHT22;26906;45.658;9.272;2023-05-19T11:15:11;20.10;99.90
41168;DHT22;26906;45.658;9.272;2023-05-19T11:17:39;20.40;99.90
41168;DHT22;26906;45.658;9.272;2023-05-19T11:20:07;20.50;99.90
41168;DHT22;26906;45.658;9.272;2023-05-19T11:22:35;20.60;99.90
41168;DHT22;26906;45.658;9.272;2023-05-19T11:25:02;20.60;99.90
41168;DHT22;26906;45.658;9.272;2023-05-19T11:27:32;20.60;99.90
41168;DHT22;26906;45.658;9.272;2023-05-19T11:30:00;20.50;99.90
41168;DHT22;26906;45.658;9.272;2023-05-19T11:32:30;20.30;99.90
41168;DHT22;26906;45.658;9.272;2023-05-19T11:34:58;20.40;99.90
41168;DHT22;26906;45.658;9.272;2023-05-19T11:37:25;20.40;99.90
41168;DHT22;26906;45.658;9.272;2023-05-19T11:39:51;20.50;99.90
41168;DHT22;26906;45.658;9.272;2023-05-19T11:42:18;20.50;99.90
41168;DHT22;26906;45.658;9.272;2023-05-19T11:44:44;20.30;99.90
41168;DHT22;26906;45.658;9.272;2023-05-19T11:47:16;20.30;99.90
41168;DHT22;26906;45.658;9.272;2023-05-19T11:49:47;20.40;99.90
41168;DHT22;26906;45.658;9.272;2023-05-19T11:52:13;20.40;99.90
41168;DHT22;26906;45.658;9.272;2023-05-19T11:54:39;20.40;99.90
41168;DHT22;26906;45.658;9.272;2023-05-19T11:57:10;20.30;99.90
41168;DHT22;26906;45.658;9.272;2023-05-19T11:59:37;20.10;99.90
41168;DHT22;26906;45.658;9.272;2023-05-19T12:02:23;20.00;99.90
41168;DHT22;26906;45.658;9.272;2023-05-19T12:04:52;20.00;99.90
41168;DHT22;26906;45.658;9.272;2023-05-19T12:07:22;19.70;99.90
41168;DHT22;26906;45.658;9.272;2023-05-19T12:09:49;19.60;99.90
41168;DHT22;26906;45.658;9.272;2023-05-19T12:12:22;19.70;99.90
41168;DHT22;26906;45.658;9.272;2023-05-19T12:14:50;19.70;99.90
41168;DHT22;26906;45.658;9.272;2023-05-19T12:17:18;19.70;99.90
41168;DHT22;26906;45.658;9.272;2023-05-19T12:19:45;19.70;99.90
41168;DHT22;26906;45.658;9.272;2023-05-19T12:22:12;19.60;99.90
41168;DHT22;26906;45.658;9.272;2023-05-19T12:24:38;19.60;99.90
41168;DHT22;26906;45.658;9.272;2023-05-19T12:27:23;19.70;99.90
41168;DHT22;26906;45.658;9.272;2023-05-19T12:29:53;19.70;99.90
41168;DHT22;26906;45.658;9.272;2023-05-19T12:32:23;19.70;99.90
41168;DHT22;26906;45.658;9.272;2023-05-19T12:34:50;19.80;99.90
41168;DHT22;26906;45.658;9.272;2023-05-19T12:37:16;19.90;99.90
41168;DHT22;26906;45.658;9.272;2023-05-19T12:39:42;20.00;99.90
41168;DHT22;26906;45.658;9.272;2023-05-19T12:42:08;20.00;99.90
41168;DHT22;26906;45.658;9.272;2023-05-19T12:47:07;20.00;99.90
41168;DHT22;26906;45.658;9.272;2023-05-19T12:49:33;19.80;99.90
41168;DHT22;26906;45.658;9.272;2023-05-19T12:52:02;19.70;99.90
41168;DHT22;26906;45.658;9.272;2023-05-19T12:54:32;19.60;99.90
41168;DHT22;26906;45.658;9.272;2023-05-19T12:56:58;19.70;99.90
41168;DHT22;26906;45.658;9.272;2023-05-19T12:59:24;19.60;99.90
41168;DHT22;26906;45.658;9.272;2023-05-19T13:01:59;19.50;99.90
41168;DHT22;26906;45.658;9.272;2023-05-19T13:04:25;19.30;99.90
41168;DHT22;26906;45.658;9.272;2023-05-19T13:06:52;19.40;99.90
41168;DHT22;26906;45.658;9.272;2023-05-19T13:09:19;19.30;99.90
41168;DHT22;26906;45.658;9.272;2023-05-19T13:11:46;19.40;99.90
41168;DHT22;26906;45.658;9.272;2023-05-19T13:14:19;19.40;99.90
41168;DHT22;26906;45.658;9.272;2023-05-19T13:16:45;19.40;99.90
41168;DHT22;26906;45.658;9.272;2023-05-19T13:19:16;19.20;99.90
41168;DHT22;26906;45.658;9.272;2023-05-19T13:21:42;19.20;99.90
41168;DHT22;26906;45.658;9.272;2023-05-19T13:24:08;19.20;99.90
41168;DHT22;26906;45.658;9.272;2023-05-19T13:26:34;19.10;99.90
41168;DHT22;26906;45.658;9.272;2023-05-19T13:29:00;19.00;99.90
41168;DHT22;26906;45.658;9.272;2023-05-19T13:31:26;18.80;99.90
41168;DHT22;26906;45.658;9.272;2023-05-19T13:33:52;18.50;99.90
41168;DHT22;26906;45.658;9.272;2023-05-19T13:36:17;18.20;99.90
41168;DHT22;26906;45.658;9.272;2023-05-19T13:38:43;18.10;99.90
41168;DHT22;26906;45.658;9.272;2023-05-19T13:41:09;18.00;99.90
41168;DHT22;26906;45.658;9.272;2023-05-19T13:43:35;18.00;99.90
41168;DHT22;26906;45.658;9.272;2023-05-19T13:46:00;17.90;99.90
41168;DHT22;26906;45.658;9.272;2023-05-19T13:48:26;17.90;99.90
41168;DHT22;26906;45.658;9.272;2023-05-19T13:50:52;17.80;99.90
41168;DHT22;26906;45.658;9.272;2023-05-19T13:53:19;17.90;99.90
41168;DHT22;26906;45.658;9.272;2023-05-19T13:55:46;17.60;99.90
41168;DHT22;26906;45.658;9.272;2023-05-19T13:58:12;17.60;99.90
41168;DHT22;26906;45.658;9.272;2023-05-19T14:00:40;17.60;99.90
41168;DHT22;26906;45.658;9.272;2023-05-19T14:03:07;17.50;99.90
41168;DHT22;26906;45.658;9.272;2023-05-19T14:05:34;17.60;99.90
41168;DHT22;26906;45.658;9.272;2023-05-19T14:08:00;17.60;99.90
41168;DHT22;26906;45.658;9.272;2023-05-19T14:10:29;17.40;99.90
41168;DHT22;26906;45.658;9.272;2023-05-19T14:12:55;17.60;99.90
41168;DHT22;26906;45.658;9.272;2023-05-19T14:15:24;17.80;99.90
41168;DHT22;26906;45.658;9.272;2023-05-19T14:17:50;17.80;99.90
41168;DHT22;26906;45.658;9.272;2023-05-19T14:20:17;18.00;99.90
41168;DHT22;26906;45.658;9.272;2023-05-19T14:22:43;18.10;99.90
41168;DHT22;26906;45.658;9.272;2023-05-19T14:25:08;18.10;99.90
41168;DHT22;26906;45.658;9.272;2023-05-19T14:27:35;18.00;99.90
41168;DHT22;26906;45.658;9.272;2023-05-19T14:30:01;18.00;99.90
41168;DHT22;26906;45.658;9.272;2023-05-19T14:32:27;18.00;99.90
41168;DHT22;26906;45.658;9.272;2023-05-19T14:34:53;18.10;99.90
41168;DHT22;26906;45.658;9.272;2023-05-19T14:37:19;18.10;99.90
41168;DHT22;26906;45.658;9.272;2023-05-19T14:39:44;18.10;99.90
41168;DHT22;26906;45.658;9.272;2023-05-19T14:42:10;17.90;99.90
41168;DHT22;26906;45.658;9.272;2023-05-19T14:44:36;17.90;99.90
41168;DHT22;26906;45.658;9.272;2023-05-19T14:47:02;17.90;99.90
41168;DHT22;26906;45.658;9.272;2023-05-19T14:49:29;17.90;99.90
41168;DHT22;26906;45.658;9.272;2023-05-19T14:51:54;17.90;99.90
41168;DHT22;26906;45.658;9.272;2023-05-19T14:54:20;17.80;99.90
41168;DHT22;26906;45.658;9.272;2023-05-19T14:56:46;17.90;99.90
41168;DHT22;26906;45.658;9.272;2023-05-19T14:59:12;17.90;99.90
41168;DHT22;26906;45.658;9.272;2023-05-19T15:01:37;17.90;99.90
41168;DHT22;26906;45.658;9.272;2023-05-19T15:04:04;17.90;99.90
41168;DHT22;26906;45.658;9.272;2023-05-19T15:06:32;17.90;99.90
41168;DHT22;26906;45.658;9.272;2023-05-19T15:08:57;17.90;99.90
41168;DHT22;26906;45.658;9.272;2023-05-19T15:11:23;17.80;99.90
41168;DHT22;26906;45.658;9.272;2023-05-19T15:13:49;17.70;99.90
41168;DHT22;26906;45.658;9.272;2023-05-19T15:16:14;17.70;99.90
41168;DHT22;26906;45.658;9.272;2023-05-19T15:18:41;17.80;99.90
41168;DHT22;26906;45.658;9.272;2023-05-19T15:21:07;17.70;99.90
41168;DHT22;26906;45.658;9.272;2023-05-19T15:23:33;17.70;99.90
41168;DHT22;26906;45.658;9.272;2023-05-19T15:25:59;17.70;99.90
41168;DHT22;26906;45.658;9.272;2023-05-19T15:28:29;17.70;99.90
41168;DHT22;26906;45.658;9.272;2023-05-19T15:30:54;17.70;99.90
41168;DHT22;26906;45.658;9.272;2023-05-19T15:33:20;17.70;99.90
41168;DHT22;26906;45.658;9.272;2023-05-19T15:35:46;17.80;99.90
41168;DHT22;26906;45.658;9.272;2023-05-19T15:38:16;17.70;99.90
41168;DHT22;26906;45.658;9.272;2023-05-19T15:40:43;17.70;99.90
41168;DHT22;26906;45.658;9.272;2023-05-19T15:43:08;17.80;99.90
41168;DHT22;26906;45.658;9.272;2023-05-19T15:45:34;17.80;99.90
41168;DHT22;26906;45.658;9.272;2023-05-19T15:48:19;17.70;99.90
41168;DHT22;26906;45.658;9.272;2023-05-19T15:50:45;17.80;99.90
41168;DHT22;26906;45.658;9.272;2023-05-19T15:53:11;17.70;99.90
41168;DHT22;26906;45.658;9.272;2023-05-19T15:55:37;17.70;99.90
41168;DHT22;26906;45.658;9.272;2023-05-19T15:58:02;17.70;99.90
41168;DHT22;26906;45.658;9.272;2023-05-19T16:00:28;17.70;99.90
41168;DHT22;26906;45.658;9.272;2023-05-19T16:02:54;17.70;99.90
41168;DHT22;26906;45.658;9.272;2023-05-19T16:05:19;17.70;99.90
41168;DHT22;26906;45.658;9.272;2023-05-19T16:07:45;17.70;99.90
41168;DHT22;26906;45.658;9.272;2023-05-19T16:10:11;17.70;99.90
41168;DHT22;26906;45.658;9.272;2023-05-19T16:12:37;17.70;99.90
41168;DHT22;26906;45.658;9.272;2023-05-19T16:15:03;17.70;99.90
41168;DHT22;26906;45.658;9.272;2023-05-19T16:17:29;17.70;99.90
41168;DHT22;26906;45.658;9.272;2023-05-19T16:19:55;17.70;99.90
41168;DHT22;26906;45.658;9.272;2023-05-19T16:22:21;17.70;99.90
41168;DHT22;26906;45.658;9.272;2023-05-19T16:24:50;17.70;99.90
41168;DHT22;26906;45.658;9.272;2023-05-19T16:27:15;17.70;99.90
41168;DHT22;26906;45.658;9.272;2023-05-19T16:29:46;17.70;99.90
41168;DHT22;26906;45.658;9.272;2023-05-19T16:32:11;17.70;99.90
41168;DHT22;26906;45.658;9.272;2023-05-19T16:34:37;17.60;99.90
41168;DHT22;26906;45.658;9.272;2023-05-19T16:37:04;17.60;99.90
41168;DHT22;26906;45.658;9.272;2023-05-19T16:39:30;17.70;99.90
41168;DHT22;26906;45.658;9.272;2023-05-19T16:41:55;17.70;99.90
41168;DHT22;26906;45.658;9.272;2023-05-19T16:44:21;17.70;99.90
41168;DHT22;26906;45.658;9.272;2023-05-19T16:46:49;17.70;99.90
41168;DHT22;26906;45.658;9.272;2023-05-19T16:49:14;17.70;99.90
41168;DHT22;26906;45.658;9.272;2023-05-19T16:51:40;17.70;99.90
41168;DHT22;26906;45.658;9.272;2023-05-19T16:54:06;17.60;99.90
41168;DHT22;26906;45.658;9.272;2023-05-19T16:56:32;17.50;99.90
41168;DHT22;26906;45.658;9.272;2023-05-19T16:58:58;17.40;99.90
41168;DHT22;26906;45.658;9.272;2023-05-19T17:01:24;17.30;99.90
41168;DHT22;26906;45.658;9.272;2023-05-19T17:03:50;17.30;99.90
41168;DHT22;26906;45.658;9.272;2023-05-19T17:06:16;17.30;99.90
41168;DHT22;26906;45.658;9.272;2023-05-19T17:08:41;17.30;99.90
41168;DHT22;26906;45.658;9.272;2023-05-19T17:11:07;17.30;99.90
41168;DHT22;26906;45.658;9.272;2023-05-19T17:13:33;17.30;99.90
41168;DHT22;26906;45.658;9.272;2023-05-19T17:16:01;17.20;99.90
41168;DHT22;26906;45.658;9.272;2023-05-19T17:18:27;17.20;99.90
41168;DHT22;26906;45.658;9.272;2023-05-19T17:20:52;17.20;99.90
41168;DHT22;26906;45.658;9.272;2023-05-19T17:23:18;17.20;99.90
41168;DHT22;26906;45.658;9.272;2023-05-19T17:25:44;17.20;99.90
41168;DHT22;26906;45.658;9.272;2023-05-19T17:28:09;17.20;99.90
41168;DHT22;26906;45.658;9.272;2023-05-19T17:30:38;17.20;99.90
41168;DHT22;26906;45.658;9.272;2023-05-19T17:33:04;17.20;99.90
41168;DHT22;26906;45.658;9.272;2023-05-19T17:35:33;17.20;99.90
41168;DHT22;26906;45.658;9.272;2023-05-19T17:37:59;17.20;99.90
41168;DHT22;26906;45.658;9.272;2023-05-19T17:40:25;17.20;99.90
41168;DHT22;26906;45.658;9.272;2023-05-19T17:42:51;17.20;99.90
41168;DHT22;26906;45.658;9.272;2023-05-19T17:45:17;17.20;99.90
41168;DHT22;26906;45.658;9.272;2023-05-19T17:47:43;17.10;99.90
41168;DHT22;26906;45.658;9.272;2023-05-19T17:50:09;17.10;99.90
41168;DHT22;26906;45.658;9.272;2023-05-19T17:52:34;17.10;99.90
41168;DHT22;26906;45.658;9.272;2023-05-19T17:55:01;17.10;99.90
41168;DHT22;26906;45.658;9.272;2023-05-19T17:57:29;17.10;99.90
41168;DHT22;26906;45.658;9.272;2023-05-19T17:59:57;17.10;99.90
41168;DHT22;26906;45.658;9.272;2023-05-19T18:02:23;17.10;99.90
41168;DHT22;26906;45.658;9.272;2023-05-19T18:04:48;17.10;99.90
41168;DHT22;26906;45.658;9.272;2023-05-19T18:07:15;17.00;99.90
41168;DHT22;26906;45.658;9.272;2023-05-19T18:09:43;17.00;99.90
41168;DHT22;26906;45.658;9.272;2023-05-19T18:12:12;17.00;99.90
41168;DHT22;26906;45.658;9.272;2023-05-19T18:14:39;17.00;99.90
41168;DHT22;26906;45.658;9.272;2023-05-19T18:17:05;17.00;99.90
41168;DHT22;26906;45.658;9.272;2023-05-19T18:19:32;17.00;99.90
41168;DHT22;26906;45.658;9.272;2023-05-19T18:21:57;17.00;99.90
41168;DHT22;26906;45.658;9.272;2023-05-19T18:24:28;17.10;99.90
41168;DHT22;26906;45.658;9.272;2023-05-19T18:26:54;17.00;99.90
41168;DHT22;26906;45.658;9.272;2023-05-19T18:29:19;17.00;99.90
41168;DHT22;26906;45.658;9.272;2023-05-19T18:31:46;17.10;99.90
41168;DHT22;26906;45.658;9.272;2023-05-19T18:34:12;17.00;99.90
41168;DHT22;26906;45.658;9.272;2023-05-19T18:36:38;16.90;99.90
41168;DHT22;26906;45.658;9.272;2023-05-19T18:39:04;16.90;99.90
41168;DHT22;26906;45.658;9.272;2023-05-19T18:41:31;16.80;99.90
41168;DHT22;26906;45.658;9.272;2023-05-19T18:43:56;16.80;99.90
41168;DHT22;26906;45.658;9.272;2023-05-19T18:46:22;16.80;99.90
41168;DHT22;26906;45.658;9.272;2023-05-19T18:48:48;16.90;99.90
41168;DHT22;26906;45.658;9.272;2023-05-19T18:51:16;16.90;99.90
41168;DHT22;26906;45.658;9.272;2023-05-19T18:53:44;16.90;99.90
41168;DHT22;26906;45.658;9.272;2023-05-19T18:56:12;16.90;99.90
41168;DHT22;26906;45.658;9.272;2023-05-19T18:58:40;16.80;99.90
41168;DHT22;26906;45.658;9.272;2023-05-19T19:01:05;16.80;99.90
41168;DHT22;26906;45.658;9.272;2023-05-19T19:03:32;16.80;99.90
41168;DHT22;26906;45.658;9.272;2023-05-19T19:05:58;16.80;99.90
41168;DHT22;26906;45.658;9.272;2023-05-19T19:08:24;16.80;99.90
41168;DHT22;26906;45.658;9.272;2023-05-19T19:10:53;16.70;99.90
41168;DHT22;26906;45.658;9.272;2023-05-19T19:13:25;16.90;99.90
41168;DHT22;26906;45.658;9.272;2023-05-19T19:15:51;16.90;99.90
41168;DHT22;26906;45.658;9.272;2023-05-19T19:18:17;16.90;99.90
41168;DHT22;26906;45.658;9.272;2023-05-19T19:20:43;16.80;99.90
41168;DHT22;26906;45.658;9.272;2023-05-19T19:23:08;16.70;99.90
41168;DHT22;26906;45.658;9.272;2023-05-19T19:25:34;16.70;99.90
41168;DHT22;26906;45.658;9.272;2023-05-19T19:28:00;16.70;99.90
41168;DHT22;26906;45.658;9.272;2023-05-19T19:30:26;16.70;99.90
41168;DHT22;26906;45.658;9.272;2023-05-19T19:32:52;16.70;99.90
41168;DHT22;26906;45.658;9.272;2023-05-19T19:35:19;16.70;99.90
41168;DHT22;26906;45.658;9.272;2023-05-19T19:37:45;16.70;99.90
41168;DHT22;26906;45.658;9.272;2023-05-19T19:40:11;16.70;99.90
41168;DHT22;26906;45.658;9.272;2023-05-19T19:42:39;16.80;99.90
41168;DHT22;26906;45.658;9.272;2023-05-19T19:45:05;16.80;99.90
41168;DHT22;26906;45.658;9.272;2023-05-19T19:47:31;16.80;99.90
41168;DHT22;26906;45.658;9.272;2023-05-19T19:49:57;16.70;99.90
41168;DHT22;26906;45.658;9.272;2023-05-19T19:52:24;16.70;99.90
41168;DHT22;26906;45.658;9.272;2023-05-19T19:54:49;16.80;99.90
41168;DHT22;26906;45.658;9.272;2023-05-19T19:57:15;16.70;99.90
41168;DHT22;26906;45.658;9.272;2023-05-19T19:59:42;16.70;99.90
41168;DHT22;26906;45.658;9.272;2023-05-19T20:02:08;16.70;99.90
41168;DHT22;26906;45.658;9.272;2023-05-19T20:04:33;16.70;99.90
41168;DHT22;26906;45.658;9.272;2023-05-19T20:06:59;16.70;99.90
41168;DHT22;26906;45.658;9.272;2023-05-19T20:09:25;16.70;99.90
41168;DHT22;26906;45.658;9.272;2023-05-19T20:11:51;16.80;99.90
41168;DHT22;26906;45.658;9.272;2023-05-19T20:14:16;16.90;99.90
41168;DHT22;26906;45.658;9.272;2023-05-19T20:16:45;16.90;99.90
41168;DHT22;26906;45.658;9.272;2023-05-19T20:19:11;16.90;99.90
41168;DHT22;26906;45.658;9.272;2023-05-19T20:21:37;16.80;99.90
41168;DHT22;26906;45.658;9.272;2023-05-19T20:24:03;16.70;99.90
41168;DHT22;26906;45.658;9.272;2023-05-19T20:26:28;16.70;99.90
41168;DHT22;26906;45.658;9.272;2023-05-19T20:28:54;16.70;99.90
41168;DHT22;26906;45.658;9.272;2023-05-19T20:31:20;16.80;99.90
41168;DHT22;26906;45.658;9.272;2023-05-19T20:33:48;16.80;99.90
41168;DHT22;26906;45.658;9.272;2023-05-19T20:36:14;16.70;99.90
41168;DHT22;26906;45.658;9.272;2023-05-19T20:38:40;16.60;99.90
41168;DHT22;26906;45.658;9.272;2023-05-19T20:41:06;16.50;99.90
41168;DHT22;26906;45.658;9.272;2023-05-19T20:43:32;16.40;99.90
41168;DHT22;26906;45.658;9.272;2023-05-19T20:45:58;16.50;99.90
41168;DHT22;26906;45.658;9.272;2023-05-19T20:48:25;16.60;99.90
41168;DHT22;26906;45.658;9.272;2023-05-19T20:50:52;16.50;99.90
41168;DHT22;26906;45.658;9.272;2023-05-19T20:53:19;16.50;99.90
41168;DHT22;26906;45.658;9.272;2023-05-19T20:55:46;16.60;99.90
41168;DHT22;26906;45.658;9.272;2023-05-19T20:58:12;16.60;99.90
41168;DHT22;26906;45.658;9.272;2023-05-19T21:00:38;16.60;99.90
